sensor_id;sensor_type;location;lat;lon;timestamp;pressure;altitude;pressure_sealevel;temperature;humidity
47154;BME280;32907;41.412;2.164;2022-12-07T00:01:44;100430.84;;;19.34;49.03
47154;BME280;32907;41.412;2.164;2022-12-07T00:04:15;100427.06;;;19.30;48.58
47154;BME280;32907;41.412;2.164;2022-12-07T00:06:45;100422.25;;;19.22;48.88
47154;BME280;32907;41.412;2.164;2022-12-07T00:09:15;100381.19;;;18.99;49.15
47154;BME280;32907;41.412;2.164;2022-12-07T00:11:43;100434.94;;;19.32;49.09
47154;BME280;32907;41.412;2.164;2022-12-07T00:14:13;100432.22;;;19.32;48.68
47154;BME280;32907;41.412;2.164;2022-12-07T00:16:42;100379.34;;;18.95;48.92
47154;BME280;32907;41.412;2.164;2022-12-07T00:19:11;100354.44;;;18.83;49.25
47154;BME280;32907;41.412;2.164;2022-12-07T00:21:40;100331.50;;;18.70;48.94
47154;BME280;32907;41.412;2.164;2022-12-07T00:24:09;100351.22;;;18.81;48.91
47154;BME280;32907;41.412;2.164;2022-12-07T00:26:38;100427.88;;;19.31;49.03
47154;BME280;32907;41.412;2.164;2022-12-07T00:29:11;100386.75;;;19.13;49.00
47154;BME280;32907;41.412;2.164;2022-12-07T00:31:40;100412.16;;;19.27;48.72
47154;BME280;32907;41.412;2.164;2022-12-07T00:34:13;100414.06;;;19.27;48.68
47154;BME280;32907;41.412;2.164;2022-12-07T00:36:41;100365.69;;;19.00;48.76
47154;BME280;32907;41.412;2.164;2022-12-07T00:39:10;100337.34;;;18.82;49.13
47154;BME280;32907;41.412;2.164;2022-12-07T00:41:39;100407.22;;;19.29;49.10
47154;BME280;32907;41.412;2.164;2022-12-07T00:44:08;100406.41;;;19.29;48.82
47154;BME280;32907;41.412;2.164;2022-12-07T00:46:35;100404.00;;;19.27;48.99
47154;BME280;32907;41.412;2.164;2022-12-07T00:49:03;100400.47;;;19.27;49.21
47154;BME280;32907;41.412;2.164;2022-12-07T00:51:31;100396.66;;;19.28;48.88
47154;BME280;32907;41.412;2.164;2022-12-07T00:53:59;100379.34;;;19.19;48.82
47154;BME280;32907;41.412;2.164;2022-12-07T00:56:28;100369.94;;;19.11;48.71
47154;BME280;32907;41.412;2.164;2022-12-07T00:58:58;100324.00;;;18.86;48.94
47154;BME280;32907;41.412;2.164;2022-12-07T01:01:29;100356.91;;;19.08;49.04
47154;BME280;32907;41.412;2.164;2022-12-07T01:03:57;100375.75;;;19.23;48.60
47154;BME280;32907;41.412;2.164;2022-12-07T01:06:25;100376.84;;;19.22;48.96
47154;BME280;32907;41.412;2.164;2022-12-07T01:08:54;100365.69;;;19.24;48.82
47154;BME280;32907;41.412;2.164;2022-12-07T01:11:24;100368.16;;;19.25;49.01
47154;BME280;32907;41.412;2.164;2022-12-07T01:13:53;100245.66;;;18.45;48.63
47154;BME280;32907;41.412;2.164;2022-12-07T01:16:25;100370.41;;;19.18;48.61
47154;BME280;32907;41.412;2.164;2022-12-07T01:18:54;100383.09;;;19.23;48.87
47154;BME280;32907;41.412;2.164;2022-12-07T01:21:28;100324.06;;;18.81;48.40
47154;BME280;32907;41.412;2.164;2022-12-07T01:23:57;100313.59;;;18.69;48.68
47154;BME280;32907;41.412;2.164;2022-12-07T01:26:25;100362.69;;;19.02;48.22
47154;BME280;32907;41.412;2.164;2022-12-07T01:28:54;100359.22;;;18.96;48.87
47154;BME280;32907;41.412;2.164;2022-12-07T01:31:24;100380.84;;;19.06;48.28
47154;BME280;32907;41.412;2.164;2022-12-07T01:33:56;100383.25;;;19.08;48.63
47154;BME280;32907;41.412;2.164;2022-12-07T01:39:02;100265.91;;;18.29;48.82
47154;BME280;32907;41.412;2.164;2022-12-07T01:41:32;100361.88;;;18.77;48.69
47154;BME280;32907;41.412;2.164;2022-12-07T01:46:38;100252.28;;;18.05;48.25
47154;BME280;32907;41.412;2.164;2022-12-07T01:49:10;100249.75;;;18.13;48.64
47154;BME280;32907;41.412;2.164;2022-12-07T01:51:40;100379.91;;;18.92;48.54
47154;BME280;32907;41.412;2.164;2022-12-07T01:54:11;100384.78;;;18.95;48.48
47154;BME280;32907;41.412;2.164;2022-12-07T01:56:42;100317.50;;;18.53;48.63
47154;BME280;32907;41.412;2.164;2022-12-07T01:59:13;100357.56;;;18.71;48.94
47154;BME280;32907;41.412;2.164;2022-12-07T02:01:41;100354.09;;;18.65;49.02
47154;BME280;32907;41.412;2.164;2022-12-07T02:04:10;100324.91;;;18.47;48.63
47154;BME280;32907;41.412;2.164;2022-12-07T02:06:38;100335.94;;;18.56;48.61
47154;BME280;32907;41.412;2.164;2022-12-07T02:09:07;100396.28;;;18.87;48.54
47154;BME280;32907;41.412;2.164;2022-12-07T02:11:35;100353.03;;;18.61;48.76
47154;BME280;32907;41.412;2.164;2022-12-07T02:14:04;100394.88;;;18.89;48.54
47154;BME280;32907;41.412;2.164;2022-12-07T02:20:42;100403.31;;;18.88;48.87
47154;BME280;32907;41.412;2.164;2022-12-07T02:31:20;100403.84;;;18.90;48.58
47154;BME280;32907;41.412;2.164;2022-12-07T02:33:56;100388.66;;;18.84;48.63
47154;BME280;32907;41.412;2.164;2022-12-07T02:36:32;100409.78;;;18.92;48.54
47154;BME280;32907;41.412;2.164;2022-12-07T02:41:40;100383.31;;;18.79;49.18
47154;BME280;32907;41.412;2.164;2022-12-07T02:44:13;100390.88;;;18.82;48.78
47154;BME280;32907;41.412;2.164;2022-12-07T02:46:49;100323.03;;;18.42;48.95
47154;BME280;32907;41.412;2.164;2022-12-07T02:49:18;100412.25;;;18.93;48.73
47154;BME280;32907;41.412;2.164;2022-12-07T02:51:49;100313.06;;;18.33;48.59
47154;BME280;32907;41.412;2.164;2022-12-07T02:54:19;100408.75;;;18.88;48.57
47154;BME280;32907;41.412;2.164;2022-12-07T02:56:53;100387.66;;;18.75;48.80
47154;BME280;32907;41.412;2.164;2022-12-07T03:05:52;100395.72;;;18.85;48.56
47154;BME280;32907;41.412;2.164;2022-12-07T03:13:48;100389.44;;;18.89;48.35
47154;BME280;32907;41.412;2.164;2022-12-07T03:16:23;100368.09;;;18.78;48.06
47154;BME280;32907;41.412;2.164;2022-12-07T03:18:59;100362.22;;;18.65;47.83
47154;BME280;32907;41.412;2.164;2022-12-07T03:21:35;100383.06;;;18.75;47.42
47154;BME280;32907;41.412;2.164;2022-12-07T03:24:18;100326.25;;;18.44;46.94
47154;BME280;32907;41.412;2.164;2022-12-07T03:26:53;100333.56;;;18.49;46.93
47154;BME280;32907;41.412;2.164;2022-12-07T03:29:28;100314.38;;;18.40;46.70
47154;BME280;32907;41.412;2.164;2022-12-07T03:35:27;100374.69;;;18.71;46.53
47154;BME280;32907;41.412;2.164;2022-12-07T03:38:03;100333.25;;;18.56;46.72
47154;BME280;32907;41.412;2.164;2022-12-07T03:40:59;100353.25;;;18.65;46.47
47154;BME280;32907;41.412;2.164;2022-12-07T03:43:29;100376.19;;;18.83;46.61
47154;BME280;32907;41.412;2.164;2022-12-07T03:46:20;100366.19;;;18.78;46.37
47154;BME280;32907;41.412;2.164;2022-12-07T03:49:00;100278.44;;;18.20;46.30
47154;BME280;32907;41.412;2.164;2022-12-07T03:51:51;100331.91;;;18.53;46.23
47154;BME280;32907;41.412;2.164;2022-12-07T03:54:36;100340.50;;;18.65;46.04
47154;BME280;32907;41.412;2.164;2022-12-07T03:57:06;100335.66;;;18.57;46.44
47154;BME280;32907;41.412;2.164;2022-12-07T03:59:36;100274.06;;;18.24;46.52
47154;BME280;32907;41.412;2.164;2022-12-07T04:02:06;100352.34;;;18.75;46.48
47154;BME280;32907;41.412;2.164;2022-12-07T04:04:35;100329.94;;;18.59;46.39
47154;BME280;32907;41.412;2.164;2022-12-07T04:07:03;100353.97;;;18.76;46.44
47154;BME280;32907;41.412;2.164;2022-12-07T04:09:31;100275.66;;;18.30;46.11
47154;BME280;32907;41.412;2.164;2022-12-07T04:11:59;100318.22;;;18.63;46.57
47154;BME280;32907;41.412;2.164;2022-12-07T04:14:27;100338.50;;;18.76;46.36
47154;BME280;32907;41.412;2.164;2022-12-07T04:16:57;100330.63;;;18.75;45.95
47154;BME280;32907;41.412;2.164;2022-12-07T04:19:28;100335.03;;;18.70;45.68
47154;BME280;32907;41.412;2.164;2022-12-07T04:21:57;100331.25;;;18.66;45.86
47154;BME280;32907;41.412;2.164;2022-12-07T04:24:26;100330.16;;;18.67;46.27
47154;BME280;32907;41.412;2.164;2022-12-07T04:26:55;100323.91;;;18.67;45.75
47154;BME280;32907;41.412;2.164;2022-12-07T04:29:23;100266.97;;;18.28;45.66
47154;BME280;32907;41.412;2.164;2022-12-07T04:31:52;100333.44;;;18.64;45.36
47154;BME280;32907;41.412;2.164;2022-12-07T04:34:21;100309.59;;;18.56;45.91
47154;BME280;32907;41.412;2.164;2022-12-07T04:36:51;100263.19;;;18.29;46.03
47154;BME280;32907;41.412;2.164;2022-12-07T04:39:25;100319.28;;;18.67;45.85
47154;BME280;32907;41.412;2.164;2022-12-07T04:41:53;100271.50;;;18.37;45.76
47154;BME280;32907;41.412;2.164;2022-12-07T04:44:23;100321.97;;;18.72;45.72
47154;BME280;32907;41.412;2.164;2022-12-07T04:46:53;100315.56;;;18.58;45.81
47154;BME280;32907;41.412;2.164;2022-12-07T04:49:21;100332.25;;;18.76;45.75
47154;BME280;32907;41.412;2.164;2022-12-07T04:51:49;100317.38;;;18.68;45.47
47154;BME280;32907;41.412;2.164;2022-12-07T04:54:19;100337.13;;;18.79;45.53
47154;BME280;32907;41.412;2.164;2022-12-07T04:56:48;100317.69;;;18.66;45.38
47154;BME280;32907;41.412;2.164;2022-12-07T04:59:16;100254.00;;;18.20;45.00
47154;BME280;32907;41.412;2.164;2022-12-07T05:01:45;100236.53;;;18.02;45.13
47154;BME280;32907;41.412;2.164;2022-12-07T05:04:13;100306.50;;;18.39;45.10
47154;BME280;32907;41.412;2.164;2022-12-07T05:06:40;100332.19;;;18.52;45.31
47154;BME280;32907;41.412;2.164;2022-12-07T05:09:08;100387.75;;;18.64;45.31
47154;BME280;32907;41.412;2.164;2022-12-07T05:11:36;100303.13;;;18.23;45.16
47154;BME280;32907;41.412;2.164;2022-12-07T05:14:16;100357.34;;;18.62;45.00
47154;BME280;32907;41.412;2.164;2022-12-07T05:16:47;100303.13;;;18.23;45.07
47154;BME280;32907;41.412;2.164;2022-12-07T05:19:15;100366.03;;;18.59;44.87
47154;BME280;32907;41.412;2.164;2022-12-07T05:21:43;100304.53;;;18.15;45.18
47154;BME280;32907;41.412;2.164;2022-12-07T05:24:13;100369.88;;;18.58;44.87
47154;BME280;32907;41.412;2.164;2022-12-07T05:26:42;100348.84;;;18.40;44.99
47154;BME280;32907;41.412;2.164;2022-12-07T05:29:12;100336.19;;;18.30;44.96
47154;BME280;32907;41.412;2.164;2022-12-07T05:31:43;100375.34;;;18.53;45.29
47154;BME280;32907;41.412;2.164;2022-12-07T05:34:11;100377.50;;;18.56;45.55
47154;BME280;32907;41.412;2.164;2022-12-07T05:36:39;100365.56;;;18.52;45.37
47154;BME280;32907;41.412;2.164;2022-12-07T05:39:08;100375.81;;;18.60;45.43
47154;BME280;32907;41.412;2.164;2022-12-07T05:41:36;100357.97;;;18.54;45.61
47154;BME280;32907;41.412;2.164;2022-12-07T05:44:22;100377.72;;;18.60;46.15
47154;BME280;32907;41.412;2.164;2022-12-07T05:46:51;100307.25;;;18.15;46.42
47154;BME280;32907;41.412;2.164;2022-12-07T05:49:19;100363.66;;;18.53;45.81
47154;BME280;32907;41.412;2.164;2022-12-07T05:51:47;100332.38;;;18.31;45.28
47154;BME280;32907;41.412;2.164;2022-12-07T05:54:15;100361.81;;;18.48;45.74
47154;BME280;32907;41.412;2.164;2022-12-07T05:56:42;100294.84;;;18.04;45.68
47154;BME280;32907;41.412;2.164;2022-12-07T05:59:10;100316.63;;;18.28;46.45
47154;BME280;32907;41.412;2.164;2022-12-07T06:04:29;100287.69;;;18.18;46.11
47154;BME280;32907;41.412;2.164;2022-12-07T06:06:58;100297.13;;;18.26;46.19
47154;BME280;32907;41.412;2.164;2022-12-07T06:09:27;100314.94;;;18.37;46.04
47154;BME280;32907;41.412;2.164;2022-12-07T06:11:56;100378.16;;;18.77;46.68
47154;BME280;32907;41.412;2.164;2022-12-07T06:14:43;100381.41;;;18.79;46.66
47154;BME280;32907;41.412;2.164;2022-12-07T06:17:11;100374.81;;;18.85;46.39
47154;BME280;32907;41.412;2.164;2022-12-07T06:19:40;100360.19;;;18.81;46.05
47154;BME280;32907;41.412;2.164;2022-12-07T06:22:08;100355.59;;;18.77;46.19
47154;BME280;32907;41.412;2.164;2022-12-07T06:24:36;100356.75;;;18.70;46.19
47154;BME280;32907;41.412;2.164;2022-12-07T06:27:05;100356.06;;;18.84;46.59
47154;BME280;32907;41.412;2.164;2022-12-07T06:29:34;100335.03;;;18.70;46.80
47154;BME280;32907;41.412;2.164;2022-12-07T06:32:03;100369.50;;;18.99;47.09
47154;BME280;32907;41.412;2.164;2022-12-07T06:34:32;100385.25;;;19.02;46.43
47154;BME280;32907;41.412;2.164;2022-12-07T06:37:00;100335.22;;;18.79;46.62
47154;BME280;32907;41.412;2.164;2022-12-07T06:39:30;100339.28;;;18.77;46.56
47154;BME280;32907;41.412;2.164;2022-12-07T06:41:59;100379.44;;;19.09;46.40
47154;BME280;32907;41.412;2.164;2022-12-07T06:44:27;100379.19;;;19.10;46.24
47154;BME280;32907;41.412;2.164;2022-12-07T06:46:58;100371.50;;;19.17;46.27
47154;BME280;32907;41.412;2.164;2022-12-07T06:49:46;100376.34;;;19.20;46.21
47154;BME280;32907;41.412;2.164;2022-12-07T06:52:14;100339.78;;;19.08;45.87
47154;BME280;32907;41.412;2.164;2022-12-07T06:54:42;100370.31;;;19.23;45.20
47154;BME280;32907;41.412;2.164;2022-12-07T06:57:11;100290.50;;;18.66;45.25
47154;BME280;32907;41.412;2.164;2022-12-07T06:59:39;100374.94;;;19.23;44.91
47154;BME280;32907;41.412;2.164;2022-12-07T07:02:08;100362.16;;;19.23;45.26
47154;BME280;32907;41.412;2.164;2022-12-07T07:04:36;100322.56;;;18.93;44.64
47154;BME280;32907;41.412;2.164;2022-12-07T07:07:04;100329.84;;;18.98;44.46
47154;BME280;32907;41.412;2.164;2022-12-07T07:09:32;100364.66;;;19.20;44.56
47154;BME280;32907;41.412;2.164;2022-12-07T07:12:00;100339.78;;;19.08;44.52
47154;BME280;32907;41.412;2.164;2022-12-07T07:14:27;100356.34;;;19.11;45.00
47154;BME280;32907;41.412;2.164;2022-12-07T07:16:57;100299.91;;;18.79;44.90
47154;BME280;32907;41.412;2.164;2022-12-07T07:19:24;100369.84;;;19.16;44.93
47154;BME280;32907;41.412;2.164;2022-12-07T07:21:52;100369.84;;;19.16;45.03
47154;BME280;32907;41.412;2.164;2022-12-07T07:24:20;100322.38;;;18.85;45.34
47154;BME280;32907;41.412;2.164;2022-12-07T07:26:48;100375.84;;;19.18;45.32
47154;BME280;32907;41.412;2.164;2022-12-07T07:29:16;100380.72;;;19.16;45.65
47154;BME280;32907;41.412;2.164;2022-12-07T07:31:43;100352.63;;;19.02;45.44
47154;BME280;32907;41.412;2.164;2022-12-07T07:34:12;100382.88;;;19.19;45.21
47154;BME280;32907;41.412;2.164;2022-12-07T07:36:41;100379.09;;;19.15;44.86
47154;BME280;32907;41.412;2.164;2022-12-07T07:39:10;100376.47;;;19.10;45.02
47154;BME280;32907;41.412;2.164;2022-12-07T07:41:40;100301.97;;;18.58;45.38
47154;BME280;32907;41.412;2.164;2022-12-07T07:44:13;100365.75;;;18.95;45.32
47154;BME280;32907;41.412;2.164;2022-12-07T07:46:40;100345.78;;;18.81;45.43
47154;BME280;32907;41.412;2.164;2022-12-07T07:49:09;100327.41;;;18.72;45.73
47154;BME280;32907;41.412;2.164;2022-12-07T07:51:38;100328.78;;;18.70;45.48
47154;BME280;32907;41.412;2.164;2022-12-07T07:54:06;100387.09;;;19.07;45.53
47154;BME280;32907;41.412;2.164;2022-12-07T07:56:34;100390.63;;;19.07;45.43
47154;BME280;32907;41.412;2.164;2022-12-07T07:59:02;100361.97;;;18.91;45.56
47154;BME280;32907;41.412;2.164;2022-12-07T08:01:30;100384.06;;;19.08;45.73
47154;BME280;32907;41.412;2.164;2022-12-07T08:03:57;100358.72;;;18.94;45.73
47154;BME280;32907;41.412;2.164;2022-12-07T08:06:25;100313.31;;;18.70;45.72
47154;BME280;32907;41.412;2.164;2022-12-07T08:08:58;100380.72;;;19.16;45.55
47154;BME280;32907;41.412;2.164;2022-12-07T08:11:26;100370.94;;;19.15;45.33
47154;BME280;32907;41.412;2.164;2022-12-07T08:13:54;100336.97;;;18.94;45.72
47154;BME280;32907;41.412;2.164;2022-12-07T08:16:22;100348.56;;;18.99;46.10
47154;BME280;32907;41.412;2.164;2022-12-07T08:18:50;100376.34;;;19.20;46.03
47154;BME280;32907;41.412;2.164;2022-12-07T08:21:18;100356.47;;;19.01;46.14
47154;BME280;32907;41.412;2.164;2022-12-07T08:23:46;100384.50;;;19.20;46.01
47154;BME280;32907;41.412;2.164;2022-12-07T08:26:15;100380.09;;;19.24;45.72
47154;BME280;32907;41.412;2.164;2022-12-07T08:28:44;100381.44;;;19.27;45.75
47154;BME280;32907;41.412;2.164;2022-12-07T08:31:15;100333.06;;;19.00;45.43
47154;BME280;32907;41.412;2.164;2022-12-07T08:33:47;100378.72;;;19.27;45.63
47154;BME280;32907;41.412;2.164;2022-12-07T08:36:17;100377.84;;;19.32;45.42
47154;BME280;32907;41.412;2.164;2022-12-07T08:38:45;100370.78;;;19.31;45.15
47154;BME280;32907;41.412;2.164;2022-12-07T08:41:33;100352.56;;;19.07;45.00
47154;BME280;32907;41.412;2.164;2022-12-07T08:44:01;100323.59;;;18.97;44.99
47154;BME280;32907;41.412;2.164;2022-12-07T08:46:47;100374.56;;;19.35;44.75
47154;BME280;32907;41.412;2.164;2022-12-07T08:49:18;100385.81;;;19.47;44.21
47154;BME280;32907;41.412;2.164;2022-12-07T08:51:47;100375.38;;;19.35;44.95
47154;BME280;32907;41.412;2.164;2022-12-07T08:54:16;100394.22;;;19.50;44.59
47154;BME280;32907;41.412;2.164;2022-12-07T08:56:46;100399.34;;;19.52;44.46
47154;BME280;32907;41.412;2.164;2022-12-07T08:59:19;100339.44;;;19.14;44.48
47154;BME280;32907;41.412;2.164;2022-12-07T09:01:48;100351.28;;;19.23;44.49
47154;BME280;32907;41.412;2.164;2022-12-07T09:04:16;100345.69;;;19.15;44.43
47154;BME280;32907;41.412;2.164;2022-12-07T09:06:44;100380.97;;;19.44;44.67
47154;BME280;32907;41.412;2.164;2022-12-07T09:09:13;100397.66;;;19.61;44.87
47154;BME280;32907;41.412;2.164;2022-12-07T09:11:42;100399.78;;;19.64;44.71
47154;BME280;32907;41.412;2.164;2022-12-07T09:14:12;100330.44;;;19.19;44.39
47154;BME280;32907;41.412;2.164;2022-12-07T09:16:40;100354.34;;;19.41;44.65
47154;BME280;32907;41.412;2.164;2022-12-07T09:19:08;100399.72;;;19.69;44.55
47154;BME280;32907;41.412;2.164;2022-12-07T09:21:36;100350.59;;;19.37;44.39
47154;BME280;32907;41.412;2.164;2022-12-07T09:24:03;100311.25;;;19.10;44.15
47154;BME280;32907;41.412;2.164;2022-12-07T09:26:33;100370.84;;;19.49;43.60
47154;BME280;32907;41.412;2.164;2022-12-07T09:29:03;100364.41;;;19.40;43.44
47154;BME280;32907;41.412;2.164;2022-12-07T09:31:30;100416.03;;;19.69;43.70
47154;BME280;32907;41.412;2.164;2022-12-07T09:34:00;100340.41;;;19.23;42.96
47154;BME280;32907;41.412;2.164;2022-12-07T09:36:28;100415.56;;;19.62;43.29
47154;BME280;32907;41.412;2.164;2022-12-07T09:38:56;100396.22;;;19.40;43.40
47154;BME280;32907;41.412;2.164;2022-12-07T09:41:25;100399.13;;;19.48;43.05
47154;BME280;32907;41.412;2.164;2022-12-07T09:44:02;100423.75;;;19.62;43.81
47154;BME280;32907;41.412;2.164;2022-12-07T09:46:35;100418.81;;;19.64;43.32
47154;BME280;32907;41.412;2.164;2022-12-07T09:49:05;100405.00;;;19.55;43.22
47154;BME280;32907;41.412;2.164;2022-12-07T09:51:33;100384.50;;;19.44;43.46
47154;BME280;32907;41.412;2.164;2022-12-07T09:54:01;100423.59;;;19.72;43.71
47154;BME280;32907;41.412;2.164;2022-12-07T09:56:29;100370.13;;;19.39;43.87
47154;BME280;32907;41.412;2.164;2022-12-07T09:59:00;100415.44;;;19.72;43.69
47154;BME280;32907;41.412;2.164;2022-12-07T10:01:30;100426.22;;;19.82;44.04
47154;BME280;32907;41.412;2.164;2022-12-07T10:04:12;100434.88;;;19.84;43.15
47154;BME280;32907;41.412;2.164;2022-12-07T10:06:41;100409.50;;;19.70;43.47
47154;BME280;32907;41.412;2.164;2022-12-07T10:09:14;100418.63;;;19.79;43.70
47154;BME280;32907;41.412;2.164;2022-12-07T10:12:07;100406.22;;;19.73;43.21
47154;BME280;32907;41.412;2.164;2022-12-07T10:14:39;100442.41;;;19.93;43.17
47154;BME280;32907;41.412;2.164;2022-12-07T10:17:35;100415.09;;;19.79;43.31
47154;BME280;32907;41.412;2.164;2022-12-07T10:20:17;100441.81;;;19.96;42.97
47154;BME280;32907;41.412;2.164;2022-12-07T10:23:08;100432.53;;;19.97;43.07
47154;BME280;32907;41.412;2.164;2022-12-07T10:25:40;100408.28;;;19.81;43.32
47154;BME280;32907;41.412;2.164;2022-12-07T10:28:11;100429.81;;;19.97;43.10
47154;BME280;32907;41.412;2.164;2022-12-07T10:30:59;100418.25;;;19.86;42.98
47154;BME280;32907;41.412;2.164;2022-12-07T10:36:22;100422.47;;;19.97;43.15
47154;BME280;32907;41.412;2.164;2022-12-07T10:39:14;100395.38;;;19.87;42.90
47154;BME280;32907;41.412;2.164;2022-12-07T10:42:00;100426.53;;;20.00;42.94
47154;BME280;32907;41.412;2.164;2022-12-07T10:44:30;100387.59;;;19.80;43.05
47154;BME280;32907;41.412;2.164;2022-12-07T11:13:39;100364.09;;;19.90;43.73
47154;BME280;32907;41.412;2.164;2022-12-07T11:21:57;100347.91;;;19.98;43.58
47154;BME280;32907;41.412;2.164;2022-12-07T11:30:11;100301.63;;;19.79;43.40
47154;BME280;32907;41.412;2.164;2022-12-07T11:36:24;100280.22;;;19.73;43.79
47154;BME280;32907;41.412;2.164;2022-12-07T11:39:01;100319.28;;;20.01;43.77
47154;BME280;32907;41.412;2.164;2022-12-07T11:41:35;100330.00;;;20.11;43.72
47154;BME280;32907;41.412;2.164;2022-12-07T11:47:05;100307.78;;;20.04;43.75
47154;BME280;32907;41.412;2.164;2022-12-07T11:49:56;100268.41;;;19.82;44.06
47154;BME280;32907;41.412;2.164;2022-12-07T11:53:36;100297.94;;;20.08;44.00
47154;BME280;32907;41.412;2.164;2022-12-07T11:58:48;100307.63;;;20.14;43.74
47154;BME280;32907;41.412;2.164;2022-12-07T12:06:43;100298.75;;;20.08;44.08
47154;BME280;32907;41.412;2.164;2022-12-07T12:09:17;100302.19;;;20.14;43.64
47154;BME280;32907;41.412;2.164;2022-12-07T12:12:24;100292.91;;;20.15;43.90
47154;BME280;32907;41.412;2.164;2022-12-07T12:15:37;100262.19;;;19.96;43.76
47154;BME280;32907;41.412;2.164;2022-12-07T12:21:02;100259.47;;;19.96;43.91
47154;BME280;32907;41.412;2.164;2022-12-07T12:23:37;100279.63;;;20.14;44.07
47154;BME280;32907;41.412;2.164;2022-12-07T12:26:08;100235.44;;;19.84;43.77
47154;BME280;32907;41.412;2.164;2022-12-07T12:31:32;100245.28;;;19.99;43.95
47154;BME280;32907;41.412;2.164;2022-12-07T12:34:02;100202.56;;;19.80;44.11
47154;BME280;32907;41.412;2.164;2022-12-07T12:46:53;100191.84;;;19.89;43.87
47154;BME280;32907;41.412;2.164;2022-12-07T12:51:56;100228.28;;;20.21;43.94
47154;BME280;32907;41.412;2.164;2022-12-07T12:54:27;100226.97;;;20.18;43.89
47154;BME280;32907;41.412;2.164;2022-12-07T12:57:13;100199.91;;;19.94;43.72
47154;BME280;32907;41.412;2.164;2022-12-07T13:04:52;100225.38;;;20.17;43.96
47154;BME280;32907;41.412;2.164;2022-12-07T13:15:41;100216.47;;;20.11;44.03
47154;BME280;32907;41.412;2.164;2022-12-07T13:33:54;100184.78;;;20.02;44.22
47154;BME280;32907;41.412;2.164;2022-12-07T13:36:26;100206.31;;;20.17;44.43
47154;BME280;32907;41.412;2.164;2022-12-07T13:38:59;100205.69;;;20.20;44.51
47154;BME280;32907;41.412;2.164;2022-12-07T13:41:29;100212.78;;;20.21;44.84
47154;BME280;32907;41.412;2.164;2022-12-07T13:44:10;100213.59;;;20.22;44.75
47154;BME280;32907;41.412;2.164;2022-12-07T13:47:14;100206.22;;;20.22;44.41
47154;BME280;32907;41.412;2.164;2022-12-07T13:49:52;100213.06;;;20.20;44.71
47154;BME280;32907;41.412;2.164;2022-12-07T13:54:57;100191.69;;;20.27;45.79
47154;BME280;32907;41.412;2.164;2022-12-07T13:57:26;100196.75;;;20.33;45.86
47154;BME280;32907;41.412;2.164;2022-12-07T13:59:56;100173.44;;;20.27;45.30
47154;BME280;32907;41.412;2.164;2022-12-07T14:02:31;100174.97;;;20.33;45.32
47154;BME280;32907;41.412;2.164;2022-12-07T14:05:26;100177.06;;;20.36;45.26
47154;BME280;32907;41.412;2.164;2022-12-07T14:07:55;100193.41;;;20.36;45.27
47154;BME280;32907;41.412;2.164;2022-12-07T14:10:31;100188.28;;;20.35;45.08
47154;BME280;32907;41.412;2.164;2022-12-07T14:13:03;100184.75;;;20.34;45.21
47154;BME280;32907;41.412;2.164;2022-12-07T14:15:33;100161.63;;;20.18;45.18
47154;BME280;32907;41.412;2.164;2022-12-07T14:18:02;100163.97;;;20.25;45.15
47154;BME280;32907;41.412;2.164;2022-12-07T14:20:38;100107.69;;;19.93;45.35
47154;BME280;32907;41.412;2.164;2022-12-07T14:23:23;100163.56;;;20.31;46.03
47154;BME280;32907;41.412;2.164;2022-12-07T14:25:53;100169.03;;;20.31;46.37
47154;BME280;32907;41.412;2.164;2022-12-07T14:28:32;100146.91;;;20.19;47.29
47154;BME280;32907;41.412;2.164;2022-12-07T14:31:02;100143.50;;;20.27;46.71
47154;BME280;32907;41.412;2.164;2022-12-07T14:33:30;100115.56;;;20.08;46.62
47154;BME280;32907;41.412;2.164;2022-12-07T14:35:59;100168.31;;;20.39;49.08
47154;BME280;32907;41.412;2.164;2022-12-07T14:38:27;100147.25;;;20.31;49.51
47154;BME280;32907;41.412;2.164;2022-12-07T14:40:56;100143.19;;;20.29;49.51
47154;BME280;32907;41.412;2.164;2022-12-07T14:43:47;100151.97;;;20.39;48.65
47154;BME280;32907;41.412;2.164;2022-12-07T14:46:35;100155.41;;;20.45;47.87
47154;BME280;32907;41.412;2.164;2022-12-07T14:49:04;100172.97;;;20.53;46.83
47154;BME280;32907;41.412;2.164;2022-12-07T14:51:52;100164.91;;;20.48;46.36
47154;BME280;32907;41.412;2.164;2022-12-07T14:54:41;100153.59;;;20.40;45.74
47154;BME280;32907;41.412;2.164;2022-12-07T14:57:10;100159.84;;;20.41;45.19
47154;BME280;32907;41.412;2.164;2022-12-07T14:59:38;100137.13;;;20.18;45.97
47154;BME280;32907;41.412;2.164;2022-12-07T15:02:13;100152.19;;;20.29;45.64
47154;BME280;32907;41.412;2.164;2022-12-07T15:04:41;100103.75;;;19.99;45.77
47154;BME280;32907;41.412;2.164;2022-12-07T15:07:15;100146.53;;;20.26;45.25
47154;BME280;32907;41.412;2.164;2022-12-07T15:09:46;100128.16;;;20.18;45.13
47154;BME280;32907;41.412;2.164;2022-12-07T15:12:15;100128.97;;;20.18;45.08
47154;BME280;32907;41.412;2.164;2022-12-07T15:14:43;100126.63;;;20.11;45.44
47154;BME280;32907;41.412;2.164;2022-12-07T15:17:11;100101.75;;;19.91;45.27
47154;BME280;32907;41.412;2.164;2022-12-07T15:19:54;100160.44;;;20.24;45.76
47154;BME280;32907;41.412;2.164;2022-12-07T15:22:22;100138.63;;;20.10;45.42
47154;BME280;32907;41.412;2.164;2022-12-07T15:24:49;100145.53;;;20.22;45.23
47154;BME280;32907;41.412;2.164;2022-12-07T15:27:17;100150.53;;;20.28;44.97
47154;BME280;32907;41.412;2.164;2022-12-07T15:29:45;100161.25;;;20.25;45.65
47154;BME280;32907;41.412;2.164;2022-12-07T15:32:13;100160.53;;;20.19;46.38
47154;BME280;32907;41.412;2.164;2022-12-07T15:34:41;100121.47;;;19.82;46.88
47154;BME280;32907;41.412;2.164;2022-12-07T15:37:09;100162.75;;;20.17;46.40
47154;BME280;32907;41.412;2.164;2022-12-07T15:39:37;100121.69;;;20.00;45.75